Fresno Yosemite International Airport
KFAT : now visible

Airfield :











YOU CAN JOIN US ON...

 
LOGIN :

Register | Disclaimer

   EN    FR    IT 

 









Legend :    VFR   Marginal VFR   IFR   Intensive IFR   Very Intensive IFR
Visi :
Ceiling :
>= 8 km
>= 3000ft
5 to 8 km
1000 to 3000 ft
1500m to 5 km
500 to 1000 ft
800 to 1500m
200 to 500 ft
< 800m
< 200 ft
Symbols :   Thunderstorms  Fog  Heavy snow  Heavy precipitations  Wind > 20 kt






- Airport Elevation : 336 ft
- IATA code : FAT


KFAT - Fresno Yosemite International

CURRENT METAR :
  • 071453Z 29003KT 10SM CLR 22/12 A2990 RMK AO2 SLP122 MTNS OBSC FU HZ DSNT N-E-S T02170122 53013

EXPIRED METARs :
  • 071353Z 35003KT 10SM CLR 20/12 A2989 RMK AO2 SLP118 MTNS OBSC FU HZ DSNT N-E-S T02000122
  • 071253Z 33003KT 10SM FEW250 19/12 A2987 RMK AO2 SLP112 T01940122
  • 071153Z 00000KT 10SM FEW250 20/12 A2986 RMK AO2 SLP109 T02000122 10261 20200 53001

TAF KFAT
Valid from the 07 at 12:00 until the 08 at 12:00 UTC


071125Z 0712/0812 30006KT P6SM SKC
KZOA FIR / North America



MET'MAP, your aeronautical weather chart ! - Copyright ORBIFLY December 2007 - Disclaimer

ORBIFLY MET'MAP TEAM :

Programming & Development : Alexandra Zaïnal
Concept & original design : Baudouin d'Aumeries
Assistance for programming : Marc-Olivier Méhu
Technical & hardware support : Manuel Goepfert

Contact : metmap@orbifly.com




SOURCES & CREDITS :

   NOAA       Earth
Advisory